createdAt,value
2022-11-29T00:00:14.106Z,9.97
2022-11-29T00:03:16.368Z,10.80
2022-11-29T00:06:23.951Z,11.60
2022-11-29T00:09:26.072Z,10.17
2022-11-29T00:12:27.731Z,10.20
2022-11-29T00:15:29.431Z,10.27
2022-11-29T00:18:31.204Z,9.90
2022-11-29T00:21:33.100Z,10.33
2022-11-29T00:24:36.103Z,11.10
2022-11-29T00:27:37.767Z,10.13
2022-11-29T00:30:39.508Z,11.83
2022-11-29T00:33:41.216Z,12.20
2022-11-29T00:36:42.947Z,12.00
2022-11-29T00:39:44.591Z,11.93
2022-11-29T00:42:46.269Z,9.83
2022-11-29T00:45:47.959Z,12.07
2022-11-29T00:48:49.723Z,13.13
2022-11-29T00:51:51.406Z,11.73
2022-11-29T00:54:53.058Z,11.90
2022-11-29T00:57:54.717Z,10.37
2022-11-29T01:00:56.810Z,10.47
2022-11-29T01:04:00.944Z,11.07
2022-11-29T01:07:02.650Z,9.43
2022-11-29T01:10:05.069Z,8.70
2022-11-29T01:13:07.504Z,8.67
2022-11-29T01:16:09.591Z,9.17
2022-11-29T01:19:11.618Z,8.67
2022-11-29T01:22:13.622Z,8.60
2022-11-29T01:25:16.231Z,8.23
2022-11-29T01:28:17.894Z,8.93
2022-11-29T01:31:26.545Z,8.30
2022-11-29T01:34:28.226Z,7.47
2022-11-29T01:37:29.972Z,7.97
2022-11-29T01:40:31.643Z,7.57
2022-11-29T01:43:34.956Z,7.90
2022-11-29T01:46:39.295Z,7.87
2022-11-29T01:49:43.995Z,8.90
2022-11-29T01:52:46.195Z,7.50
2022-11-29T01:55:53.874Z,7.77
2022-11-29T01:58:56.002Z,8.43
2022-11-29T02:02:05.845Z,8.60
2022-11-29T02:05:09.243Z,9.00
2022-11-29T02:08:13.899Z,7.83
2022-11-29T02:11:15.622Z,8.30
2022-11-29T02:14:32.562Z,8.73
2022-11-29T02:17:46.311Z,8.27
2022-11-29T02:20:50.768Z,7.90
2022-11-29T02:24:23.321Z,8.17
2022-11-29T02:27:43.484Z,8.80
2022-11-29T02:31:22.782Z,8.23
2022-11-29T02:34:47.266Z,7.33
2022-11-29T02:38:16.603Z,8.00
2022-11-29T02:41:56.081Z,6.80
2022-11-29T02:45:32.062Z,8.17
2022-11-29T02:49:13.786Z,7.17
2022-11-29T02:52:24.993Z,8.37
2022-11-29T02:55:46.562Z,7.83
2022-11-29T02:58:55.885Z,9.10
2022-11-29T03:02:22.261Z,7.47
2022-11-29T03:05:28.532Z,8.30
2022-11-29T03:08:41.108Z,8.87
2022-11-29T03:11:52.440Z,9.67
2022-11-29T03:14:59.962Z,9.07
2022-11-29T03:18:05.489Z,8.63
2022-11-29T03:21:25.374Z,8.63
2022-11-29T03:24:37.176Z,8.90
2022-11-29T03:27:46.104Z,8.03
2022-11-29T03:31:28.353Z,9.07
2022-11-29T03:34:56.853Z,6.97
2022-11-29T03:38:03.504Z,8.57
2022-11-29T03:41:28.065Z,8.57
2022-11-29T03:44:56.401Z,7.77
2022-11-29T03:48:07.947Z,9.50
2022-11-29T03:51:31.173Z,9.43
2022-11-29T03:54:38.240Z,6.93
2022-11-29T03:57:52.113Z,8.77
2022-11-29T04:01:10.572Z,9.27
2022-11-29T04:04:49.929Z,8.97
2022-11-29T04:08:13.642Z,9.33
2022-11-29T04:11:30.307Z,9.20
2022-11-29T04:15:07.243Z,9.43
2022-11-29T04:18:48.182Z,9.63
2022-11-29T04:22:14.051Z,11.13
2022-11-29T04:25:27.628Z,10.67
2022-11-29T04:28:59.552Z,10.83
2022-11-29T04:32:39.586Z,8.83
2022-11-29T04:36:00.139Z,10.17
2022-11-29T04:39:32.131Z,9.97
2022-11-29T04:42:42.735Z,12.07
2022-11-29T04:46:12.435Z,10.67
2022-11-29T04:49:28.728Z,10.23
2022-11-29T04:53:00.087Z,9.23
2022-11-29T04:56:13.806Z,9.10
2022-11-29T04:59:36.737Z,9.00
2022-11-29T05:02:41.477Z,8.60
2022-11-29T05:05:48.484Z,7.40
2022-11-29T05:08:58.169Z,8.77
2022-11-29T05:12:08.004Z,9.37
2022-11-29T05:15:43.859Z,9.17
2022-11-29T05:19:08.628Z,7.63
2022-11-29T05:22:38.898Z,8.93
2022-11-29T05:26:02.224Z,9.60
2022-11-29T05:29:20.280Z,8.73
2022-11-29T05:32:30.344Z,9.27
2022-11-29T05:35:43.972Z,8.30
2022-11-29T05:39:14.015Z,8.23
2022-11-29T05:42:41.986Z,8.40
2022-11-29T05:45:51.003Z,8.13
2022-11-29T05:48:55.507Z,8.97
2022-11-29T05:52:28.923Z,8.60
2022-11-29T05:55:45.649Z,7.67
2022-11-29T05:58:56.629Z,9.20
2022-11-29T06:02:19.863Z,7.90
2022-11-29T06:05:41.067Z,7.93
2022-11-29T06:08:57.543Z,9.23
2022-11-29T06:12:22.863Z,7.93
2022-11-29T06:15:43.198Z,7.00
2022-11-29T06:19:34.320Z,8.20
2022-11-29T06:22:54.494Z,7.07
2022-11-29T06:26:37.015Z,8.57
2022-11-29T06:29:48.333Z,7.77
2022-11-29T06:33:04.935Z,9.33
2022-11-29T06:36:19.736Z,8.53
2022-11-29T06:39:21.899Z,8.50
2022-11-29T06:42:23.575Z,8.93
2022-11-29T06:45:25.599Z,7.80
2022-11-29T06:48:39.559Z,10.57
2022-11-29T06:51:43.973Z,8.33
2022-11-29T06:54:54.710Z,8.90
2022-11-29T06:58:02.930Z,9.23
2022-11-29T07:01:20.015Z,9.20
2022-11-29T07:04:46.579Z,9.23
2022-11-29T07:07:49.210Z,10.10
2022-11-29T07:10:54.800Z,9.50
2022-11-29T07:13:56.694Z,9.00
2022-11-29T07:17:07.358Z,7.83
2022-11-29T07:20:43.658Z,8.40
2022-11-29T07:23:51.090Z,11.20
2022-11-29T07:27:13.023Z,10.00
2022-11-29T07:30:22.366Z,10.03
2022-11-29T07:33:34.230Z,8.97
2022-11-29T07:37:00.253Z,8.17
2022-11-29T07:40:20.824Z,7.57
2022-11-29T07:43:46.503Z,8.47
2022-11-29T07:46:48.218Z,10.43
2022-11-29T07:49:49.909Z,7.43
2022-11-29T07:52:51.768Z,9.13
2022-11-29T07:55:53.531Z,9.63
2022-11-29T07:58:55.257Z,10.77
2022-11-29T08:01:57.149Z,9.57
2022-11-29T08:04:58.835Z,10.13
2022-11-29T08:08:00.655Z,9.70
2022-11-29T08:11:07.823Z,10.73
2022-11-29T08:14:09.525Z,10.73
2022-11-29T08:17:11.259Z,11.33
2022-11-29T08:20:14.647Z,9.70
2022-11-29T08:23:16.319Z,8.90
2022-11-29T08:26:19.479Z,9.50
2022-11-29T08:29:21.178Z,10.63
2022-11-29T08:32:22.868Z,11.07
2022-11-29T08:35:24.783Z,10.07
2022-11-29T08:38:26.435Z,10.53
2022-11-29T08:41:28.415Z,9.53
2022-11-29T08:44:30.138Z,11.60
2022-11-29T08:47:38.083Z,9.57
2022-11-29T08:50:39.714Z,10.97
2022-11-29T08:53:41.419Z,11.77
2022-11-29T08:57:23.561Z,8.97
2022-11-29T09:00:06.386Z,10.37
2022-11-29T09:03:27.066Z,10.13
2022-11-29T09:06:32.897Z,11.80
2022-11-29T09:09:34.582Z,13.07
2022-11-29T09:12:37.394Z,12.40
2022-11-29T09:15:40.142Z,11.87
2022-11-29T09:18:43.171Z,13.33
2022-11-29T09:21:47.693Z,11.30
2022-11-29T09:24:49.436Z,12.60
2022-11-29T09:27:51.714Z,12.47
2022-11-29T09:30:53.460Z,11.83
2022-11-29T09:33:55.890Z,11.83
2022-11-29T09:36:57.583Z,12.43
2022-11-29T09:39:59.295Z,11.23
2022-11-29T09:43:11.255Z,13.37
2022-11-29T09:46:27.306Z,13.17
2022-11-29T09:49:47.109Z,12.77
2022-11-29T09:53:34.148Z,12.90
2022-11-29T09:56:46.290Z,13.40
2022-11-29T09:59:57.310Z,12.63
2022-11-29T10:03:09.944Z,12.00
2022-11-29T10:06:14.318Z,11.97
2022-11-29T10:09:19.447Z,11.27
2022-11-29T10:12:34.912Z,10.10
2022-11-29T10:15:41.235Z,9.60
2022-11-29T10:18:58.952Z,8.87
2022-11-29T10:22:22.487Z,9.63
2022-11-29T10:25:37.373Z,14.17
2022-11-29T10:28:44.871Z,11.33
2022-11-29T10:31:49.269Z,9.37
2022-11-29T10:34:51.838Z,10.70
2022-11-29T10:38:28.966Z,10.77
2022-11-29T10:41:22.527Z,10.47
2022-11-29T10:44:24.642Z,9.70
2022-11-29T10:47:26.483Z,9.00
2022-11-29T10:50:31.064Z,9.47
2022-11-29T10:53:37.221Z,10.00
2022-11-29T10:56:40.292Z,11.23
2022-11-29T10:59:42.454Z,9.67
2022-11-29T11:02:44.151Z,11.90
2022-11-29T11:06:19.679Z,13.70
2022-11-29T11:09:59.441Z,11.47
2022-11-29T11:13:08.026Z,10.37
2022-11-29T11:16:20.404Z,10.87
2022-11-29T11:19:31.963Z,11.23
2022-11-29T11:22:34.853Z,11.37
2022-11-29T11:25:40.296Z,9.57
2022-11-29T11:29:00.355Z,8.70
2022-11-29T11:32:02.621Z,9.03
2022-11-29T11:35:23.148Z,9.80
2022-11-29T11:38:24.782Z,10.43
2022-11-29T11:41:50.759Z,11.03
2022-11-29T11:44:53.345Z,10.73
2022-11-29T11:47:58.209Z,10.83
2022-11-29T11:51:01.060Z,9.97
2022-11-29T11:54:02.846Z,10.53
2022-11-29T11:57:04.595Z,9.97
2022-11-29T12:00:07.472Z,9.83
2022-11-29T12:03:51.399Z,11.40
2022-11-29T12:06:57.057Z,12.20
2022-11-29T12:10:07.045Z,9.37
2022-11-29T12:13:24.485Z,11.00
2022-11-29T12:16:33.005Z,8.77
2022-11-29T12:19:46.615Z,10.63
2022-11-29T12:23:12.502Z,9.73
2022-11-29T12:26:54.832Z,10.53
2022-11-29T12:29:43.310Z,12.10
2022-11-29T12:33:22.983Z,12.23
2022-11-29T12:36:40.430Z,12.37
2022-11-29T12:39:48.365Z,11.43
2022-11-29T12:42:55.949Z,10.43
2022-11-29T12:46:10.700Z,10.70
2022-11-29T12:49:24.099Z,11.23
2022-11-29T12:52:39.552Z,12.87
2022-11-29T12:55:52.891Z,11.10
2022-11-29T12:59:45.269Z,11.17
2022-11-29T13:02:49.626Z,12.23
2022-11-29T13:06:12.395Z,11.47
2022-11-29T13:09:36.843Z,11.13
2022-11-29T13:12:58.348Z,10.67
2022-11-29T13:16:09.913Z,11.17
2022-11-29T13:19:34.258Z,10.70
2022-11-29T13:22:35.864Z,10.10
2022-11-29T13:25:41.930Z,12.03
2022-11-29T13:28:46.442Z,10.67
2022-11-29T13:31:48.783Z,10.70
2022-11-29T13:34:51.778Z,11.33
2022-11-29T13:38:21.248Z,9.83
2022-11-29T13:41:44.282Z,9.83
2022-11-29T13:45:07.688Z,8.20
2022-11-29T13:48:27.789Z,10.73
2022-11-29T13:51:33.307Z,10.00
2022-11-29T13:54:35.024Z,10.37
2022-11-29T13:58:15.436Z,10.73
2022-11-29T14:01:14.379Z,10.30
2022-11-29T14:04:37.472Z,10.57
2022-11-29T14:08:18.209Z,11.53
2022-11-29T14:11:34.581Z,10.47
2022-11-29T14:14:51.986Z,10.50
2022-11-29T14:18:02.812Z,10.97
2022-11-29T14:21:04.938Z,11.63
2022-11-29T14:24:35.266Z,9.67
2022-11-29T14:27:39.967Z,11.17
2022-11-29T14:30:44.407Z,12.43
2022-11-29T14:34:01.082Z,10.77
2022-11-29T14:37:14.368Z,11.40
2022-11-29T14:40:34.113Z,10.07
2022-11-29T14:43:37.770Z,11.87
2022-11-29T14:46:39.596Z,11.63
2022-11-29T14:49:44.233Z,8.60
2022-11-29T14:52:52.545Z,10.53
2022-11-29T14:56:35.136Z,10.73
2022-11-29T14:59:51.181Z,10.37
2022-11-29T15:03:02.192Z,8.73
2022-11-29T15:06:12.969Z,9.20
2022-11-29T15:09:20.388Z,11.17
2022-11-29T15:12:27.614Z,9.83
2022-11-29T15:15:35.083Z,9.70
2022-11-29T15:19:07.775Z,10.83
2022-11-29T15:22:17.914Z,10.20
2022-11-29T15:25:22.873Z,9.93
2022-11-29T15:28:29.123Z,12.00
2022-11-29T15:31:31.406Z,11.80
2022-11-29T15:34:47.951Z,12.47
2022-11-29T15:37:51.627Z,11.90
2022-11-29T15:40:55.200Z,11.30
2022-11-29T15:44:02.418Z,11.00
2022-11-29T15:47:26.373Z,12.30
2022-11-29T15:50:33.297Z,11.43
2022-11-29T15:53:49.135Z,11.90
2022-11-29T15:56:55.102Z,11.43
2022-11-29T16:00:03.173Z,12.03
2022-11-29T16:03:16.660Z,11.17
2022-11-29T16:06:41.001Z,11.40
2022-11-29T16:09:47.431Z,10.53
2022-11-29T16:12:58.287Z,11.20
2022-11-29T16:16:06.243Z,10.40
2022-11-29T16:19:28.117Z,11.23
2022-11-29T16:22:31.058Z,9.60
2022-11-29T16:25:37.364Z,9.53
2022-11-29T16:28:46.013Z,10.33
2022-11-29T16:31:47.744Z,10.90
2022-11-29T16:34:49.635Z,10.17
2022-11-29T16:37:51.687Z,10.60
2022-11-29T16:41:06.783Z,10.90
2022-11-29T16:44:37.504Z,10.10
2022-11-29T16:47:48.288Z,10.27
2022-11-29T16:51:11.315Z,9.57
2022-11-29T16:54:18.796Z,10.63
2022-11-29T16:57:20.748Z,10.77
2022-11-29T17:00:28.814Z,9.17
2022-11-29T17:03:30.504Z,11.43
2022-11-29T17:06:32.227Z,10.77
2022-11-29T17:09:34.899Z,10.97
2022-11-29T17:12:36.531Z,9.53
2022-11-29T17:15:38.263Z,9.07
2022-11-29T17:18:41.898Z,10.00
2022-11-29T17:21:44.125Z,10.43
2022-11-29T17:24:48.293Z,8.03
2022-11-29T17:27:50.327Z,9.37
2022-11-29T17:30:52.318Z,10.80
2022-11-29T17:33:54.110Z,9.77
2022-11-29T17:36:55.786Z,8.20
2022-11-29T17:39:57.709Z,9.73
2022-11-29T17:42:59.389Z,9.43
2022-11-29T17:46:07.221Z,10.13
2022-11-29T17:49:10.192Z,10.77
2022-11-29T17:52:11.841Z,9.53
2022-11-29T17:55:13.532Z,9.13
2022-11-29T17:58:15.203Z,9.00
2022-11-29T18:01:19.328Z,8.63
2022-11-29T18:04:21.439Z,9.67
2022-11-29T18:07:23.123Z,10.27
2022-11-29T18:10:26.412Z,9.70
2022-11-29T18:13:28.051Z,10.60
2022-11-29T18:16:32.712Z,11.10
2022-11-29T18:19:34.521Z,11.80
2022-11-29T18:22:36.172Z,11.47
2022-11-29T18:25:39.684Z,11.03
2022-11-29T18:28:42.899Z,11.63
2022-11-29T18:31:45.973Z,11.57
2022-11-29T18:34:47.880Z,12.57
2022-11-29T18:38:13.991Z,12.30
2022-11-29T18:41:18.371Z,12.67
2022-11-29T18:44:21.818Z,13.33
2022-11-29T18:47:23.593Z,12.80
2022-11-29T18:50:25.302Z,14.57
2022-11-29T18:53:26.935Z,13.27
2022-11-29T18:56:30.546Z,13.10
2022-11-29T18:59:32.254Z,12.97
2022-11-29T19:02:33.944Z,12.87
2022-11-29T19:05:35.585Z,15.00
2022-11-29T19:08:37.936Z,14.90
2022-11-29T19:11:39.701Z,14.20
2022-11-29T19:14:46.519Z,14.57
2022-11-29T19:17:51.190Z,13.77
2022-11-29T19:20:53.547Z,14.13
2022-11-29T19:24:07.533Z,15.50
2022-11-29T19:27:09.163Z,15.23
2022-11-29T19:30:11.518Z,15.17
2022-11-29T19:33:13.599Z,14.30
2022-11-29T19:36:19.917Z,14.83
2022-11-29T19:39:21.552Z,15.87
2022-11-29T19:42:23.283Z,16.23
2022-11-29T19:45:25.037Z,14.90
2022-11-29T19:48:28.293Z,16.17
2022-11-29T19:51:30.697Z,15.27
2022-11-29T19:54:32.397Z,16.27
2022-11-29T19:57:34.055Z,16.37
2022-11-29T20:00:35.687Z,16.30
2022-11-29T20:03:37.871Z,15.97
2022-11-29T20:06:40.209Z,16.17
2022-11-29T20:09:41.840Z,16.17
2022-11-29T20:12:43.530Z,17.10
2022-11-29T20:15:45.217Z,17.53
2022-11-29T20:18:51.072Z,16.40
2022-11-29T20:21:54.094Z,16.97
2022-11-29T20:24:55.991Z,16.73
2022-11-29T20:27:58.089Z,17.27
2022-11-29T20:31:05.616Z,17.47
2022-11-29T20:34:11.348Z,16.83
2022-11-29T20:37:24.996Z,16.90
2022-11-29T20:40:40.235Z,17.60
2022-11-29T20:43:50.236Z,15.97
2022-11-29T20:46:52.068Z,17.03
2022-11-29T20:49:54.179Z,16.57
2022-11-29T20:52:55.811Z,17.67
2022-11-29T20:55:57.806Z,16.87
2022-11-29T20:58:59.445Z,17.33
2022-11-29T21:02:02.471Z,18.67
2022-11-29T21:05:04.803Z,16.83
2022-11-29T21:08:06.514Z,17.97
2022-11-29T21:11:12.769Z,17.77
2022-11-29T21:14:14.767Z,18.70
2022-11-29T21:17:17.151Z,16.53
2022-11-29T21:20:22.733Z,18.77
2022-11-29T21:23:38.349Z,17.60
2022-11-29T21:26:44.518Z,15.90
2022-11-29T21:29:46.380Z,17.40
2022-11-29T21:32:48.766Z,19.07
2022-11-29T21:35:54.407Z,18.33
2022-11-29T21:38:57.864Z,18.33
2022-11-29T21:42:05.360Z,19.23
2022-11-29T21:45:13.410Z,17.53
2022-11-29T21:48:34.719Z,16.40
2022-11-29T21:51:36.378Z,17.40
2022-11-29T21:54:38.757Z,17.23
2022-11-29T21:57:40.427Z,17.37
2022-11-29T22:00:42.925Z,16.83
2022-11-29T22:03:45.076Z,17.53
2022-11-29T22:06:47.309Z,17.90
2022-11-29T22:09:48.964Z,20.40
2022-11-29T22:12:52.548Z,17.63
2022-11-29T22:15:54.600Z,17.00
2022-11-29T22:18:56.340Z,17.83
2022-11-29T22:22:06.914Z,18.53
2022-11-29T22:25:08.887Z,18.13
2022-11-29T22:28:10.536Z,17.50
2022-11-29T22:31:12.961Z,17.60
2022-11-29T22:34:14.760Z,17.23
2022-11-29T22:37:16.893Z,16.13
2022-11-29T22:40:18.650Z,18.13
2022-11-29T22:43:20.335Z,17.67
2022-11-29T22:46:24.066Z,18.27
2022-11-29T22:49:25.838Z,19.53
2022-11-29T22:52:27.578Z,17.87
2022-11-29T22:55:29.222Z,18.97
2022-11-29T22:58:30.927Z,18.10
2022-11-29T23:01:34.779Z,18.73
2022-11-29T23:04:36.421Z,18.97
2022-11-29T23:07:38.216Z,18.27
2022-11-29T23:10:39.922Z,18.77
2022-11-29T23:13:42.775Z,18.43
2022-11-29T23:16:44.765Z,17.97
2022-11-29T23:19:46.511Z,18.37
2022-11-29T23:22:48.176Z,18.30
2022-11-29T23:25:50.211Z,17.97
2022-11-29T23:28:52.574Z,19.10
2022-11-29T23:31:54.302Z,18.73
2022-11-29T23:34:56.075Z,18.60
2022-11-29T23:37:57.717Z,19.40
2022-11-29T23:40:59.760Z,16.97
2022-11-29T23:44:04.040Z,15.33
2022-11-29T23:47:05.670Z,14.47
2022-11-29T23:50:08.249Z,15.63
2022-11-29T23:53:13.184Z,13.97
2022-11-29T23:56:17.035Z,15.77
2022-11-29T23:59:18.686Z,13.60
